Time;durP1;ratioP1;P1;durP2;ratioP2;P2;SDS_P1;SDS_P2;PMS_P1;PMS_P2;Temp;Humidity;BMP_temperature;BMP_pressure;BME280_temperature;BME280_humidity;BME280_pressure;Samples;Min_cycle;Max_cycle;Signal;HPM_P1;HPM_P2
2023/08/21 00:01:28;;;;;;;16.85;14.15;;;22.30;99.90;;;;;;5054324;28;20209;-73
2023/08/21 00:03:54;;;;;;;19.75;15.20;;;22.30;99.90;;;;;;5054510;28;20206;-73
2023/08/21 00:06:21;;;;;;;15.30;13.90;;;22.20;99.90;;;;;;5054590;28;20225;-73
2023/08/21 00:08:48;;;;;;;15.77;14.27;;;22.10;99.90;;;;;;5054458;28;20707;-73
2023/08/21 00:11:14;;;;;;;19.05;15.77;;;22.00;99.90;;;;;;5054439;28;20225;-73
2023/08/21 00:13:44;;;;;;;18.13;15.75;;;22.10;99.90;;;;;;5054330;28;20198;-74
2023/08/21 00:16:12;;;;;;;17.90;16.20;;;22.10;99.90;;;;;;5054209;28;20212;-73
2023/08/21 00:18:39;;;;;;;17.23;15.38;;;22.20;99.90;;;;;;5054494;28;20228;-73
2023/08/21 00:21:05;;;;;;;17.92;16.33;;;22.30;99.90;;;;;;5054650;28;20198;-73
2023/08/21 00:23:32;;;;;;;17.27;15.70;;;22.50;99.90;;;;;;5054325;28;20259;-73
2023/08/21 00:25:59;;;;;;;16.50;14.85;;;22.50;99.90;;;;;;5054213;28;20279;-73
2023/08/21 00:28:25;;;;;;;17.25;15.75;;;22.60;99.90;;;;;;5054124;28;20194;-74
2023/08/21 00:30:52;;;;;;;16.58;14.80;;;22.40;99.90;;;;;;5053872;28;20218;-73
2023/08/21 00:33:20;;;;;;;19.00;15.90;;;22.40;99.90;;;;;;5054149;28;20252;-73
2023/08/21 00:35:46;;;;;;;16.48;15.07;;;22.30;99.90;;;;;;5054057;28;20198;-73
2023/08/21 00:38:13;;;;;;;18.40;16.63;;;22.30;99.90;;;;;;5053755;28;20239;-72
2023/08/21 00:40:39;;;;;;;16.17;14.55;;;22.50;99.90;;;;;;5053840;28;20230;-73
2023/08/21 00:43:06;;;;;;;17.20;15.43;;;22.50;99.90;;;;;;5053867;28;20292;-73
2023/08/21 00:45:33;;;;;;;16.67;15.18;;;22.60;99.90;;;;;;5053710;28;20201;-72
2023/08/21 00:48:00;;;;;;;17.83;15.73;;;22.60;99.90;;;;;;5053592;28;20645;-73
2023/08/21 00:50:28;;;;;;;21.05;15.63;;;22.60;99.90;;;;;;5053635;28;20218;-73
2023/08/21 00:52:54;;;;;;;17.35;15.73;;;22.50;99.90;;;;;;5053727;28;20197;-73
2023/08/21 00:55:21;;;;;;;17.17;15.55;;;22.40;99.90;;;;;;5053647;28;20194;-72
2023/08/21 00:57:48;;;;;;;17.00;15.50;;;22.40;99.90;;;;;;5053377;28;20198;-72
2023/08/21 01:00:15;;;;;;;17.95;16.00;;;22.30;99.90;;;;;;5053758;28;20205;-73
2023/08/21 01:02:42;;;;;;;16.85;15.25;;;22.40;99.90;;;;;;5053264;28;20600;-72
2023/08/21 01:05:09;;;;;;;18.52;16.65;;;22.50;99.90;;;;;;5053520;28;20247;-73
2023/08/21 01:07:48;;;;;;;18.27;15.90;;;22.40;99.90;;;;;;5053486;28;20198;-73
2023/08/21 01:10:21;;;;;;;17.67;15.85;;;22.40;99.90;;;;;;5053325;28;20231;-73
2023/08/21 01:12:55;;;;;;;17.02;15.52;;;22.30;99.90;;;;;;5052853;28;20197;-72
2023/08/21 01:15:23;;;;;;;18.60;16.80;;;22.20;99.90;;;;;;5054411;28;20197;-72
2023/08/21 01:17:50;;;;;;;17.48;15.70;;;22.10;99.90;;;;;;5053257;28;20206;-72
2023/08/21 01:20:17;;;;;;;17.67;16.08;;;22.10;99.90;;;;;;5053031;28;20662;-72
2023/08/21 01:22:46;;;;;;;18.75;15.70;;;22.00;99.90;;;;;;5053112;28;20221;-72
2023/08/21 01:25:15;;;;;;;18.63;15.48;;;21.90;99.90;;;;;;5053195;28;20197;-72
2023/08/21 01:27:46;;;;;;;17.70;16.02;;;21.80;99.90;;;;;;5053184;28;20194;-72
2023/08/21 01:30:13;;;;;;;17.98;15.48;;;21.90;99.90;;;;;;5052804;28;20225;-72
2023/08/21 01:32:49;;;;;;;17.95;16.35;;;22.10;99.90;;;;;;5052950;28;20470;-73
2023/08/21 01:35:16;;;;;;;17.95;16.15;;;22.00;99.90;;;;;;5052921;28;20618;-72
2023/08/21 01:37:43;;;;;;;18.55;16.50;;;21.90;99.90;;;;;;5052815;28;20209;-72
2023/08/21 01:40:11;;;;;;;17.73;16.13;;;22.10;99.90;;;;;;5052838;28;20241;-72
2023/08/21 01:42:39;;;;;;;17.13;15.63;;;22.10;99.90;;;;;;5052845;28;20202;-72
2023/08/21 01:45:07;;;;;;;17.65;15.90;;;22.20;99.90;;;;;;5052884;28;20247;-72
2023/08/21 01:47:34;;;;;;;16.70;15.00;;;22.20;99.90;;;;;;5052703;28;20240;-72
2023/08/21 01:50:00;;;;;;;16.15;14.55;;;22.30;99.90;;;;;;5052535;28;20205;-72
2023/08/21 01:52:27;;;;;;;16.30;14.70;;;22.30;99.90;;;;;;5052789;28;20250;-72
2023/08/21 01:54:53;;;;;;;17.35;15.65;;;22.40;99.90;;;;;;5052880;28;20201;-72
2023/08/21 01:57:20;;;;;;;16.20;14.73;;;22.40;99.90;;;;;;5052660;28;20251;-72
2023/08/21 01:59:48;;;;;;;16.90;15.40;;;22.30;99.90;;;;;;5052673;28;20243;-72
2023/08/21 02:02:15;;;;;;;16.95;15.25;;;22.30;99.90;;;;;;5052551;28;20699;-72
2023/08/21 02:04:42;;;;;;;17.45;15.65;;;22.20;99.90;;;;;;5052458;28;20248;-72
2023/08/21 02:07:08;;;;;;;17.98;15.98;;;22.20;99.90;;;;;;5052652;28;20202;-72
2023/08/21 02:09:35;;;;;;;17.08;15.48;;;22.10;99.90;;;;;;5052642;28;20251;-72
2023/08/21 02:12:02;;;;;;;16.92;14.95;;;22.10;99.90;;;;;;5052510;28;20676;-72
2023/08/21 02:14:29;;;;;;;17.67;16.00;;;22.00;99.90;;;;;;5052532;28;20193;-72
2023/08/21 02:16:57;;;;;;;18.40;16.65;;;21.90;99.90;;;;;;5052321;28;20197;-72
2023/08/21 02:19:23;;;;;;;18.42;16.52;;;21.80;99.90;;;;;;5052647;28;20205;-72
2023/08/21 02:21:50;;;;;;;19.92;17.08;;;21.70;99.90;;;;;;5052411;28;20194;-72
2023/08/21 02:24:16;;;;;;;19.08;17.10;;;21.70;99.90;;;;;;5052521;28;20240;-73
2023/08/21 02:26:45;;;;;;;18.55;16.85;;;21.60;99.90;;;;;;5056230;28;20201;-72
2023/08/21 02:29:12;;;;;;;18.52;16.63;;;21.60;99.90;;;;;;5056273;28;20205;-72
2023/08/21 02:31:39;;;;;;;19.92;18.00;;;21.70;99.90;;;;;;5056124;28;20225;-72
2023/08/21 02:34:07;;;;;;;19.58;17.63;;;21.60;99.90;;;;;;5056316;28;20201;-73
2023/08/21 02:36:33;;;;;;;18.38;16.65;;;21.50;99.90;;;;;;5056285;28;20276;-72
2023/08/21 02:39:00;;;;;;;19.33;17.50;;;21.40;99.90;;;;;;5056226;28;20535;-72
2023/08/21 02:41:26;;;;;;;20.02;18.17;;;21.30;99.90;;;;;;5056070;28;20279;-72
2023/08/21 02:43:53;;;;;;;20.20;18.20;;;21.20;99.90;;;;;;5056126;28;20197;-72
2023/08/21 02:46:20;;;;;;;20.33;18.25;;;21.20;99.90;;;;;;5055838;28;20217;-72
2023/08/21 02:48:46;;;;;;;18.85;16.85;;;21.20;99.90;;;;;;5055891;28;20669;-72
2023/08/21 02:51:14;;;;;;;19.45;17.40;;;21.30;99.90;;;;;;5055926;28;20230;-72
2023/08/21 02:53:41;;;;;;;19.13;17.38;;;21.20;99.90;;;;;;5055863;28;20616;-72
2023/08/21 02:56:08;;;;;;;18.70;16.83;;;21.30;99.90;;;;;;5055946;28;20255;-72
2023/08/21 02:58:34;;;;;;;19.20;16.98;;;21.30;99.90;;;;;;5055675;28;20203;-72
2023/08/21 03:01:01;;;;;;;18.83;17.05;;;21.30;99.90;;;;;;5055854;28;20205;-72
2023/08/21 03:03:27;;;;;;;19.50;17.48;;;21.30;99.90;;;;;;5055792;28;20205;-72
2023/08/21 03:05:54;;;;;;;20.15;17.42;;;21.30;99.90;;;;;;5055721;28;20202;-72
2023/08/21 03:08:22;;;;;;;18.95;16.90;;;21.30;99.90;;;;;;5055562;28;20263;-73
2023/08/21 03:10:49;;;;;;;19.08;17.08;;;21.40;99.90;;;;;;5055712;28;20312;-73
2023/08/21 03:13:15;;;;;;;18.80;16.95;;;21.60;99.90;;;;;;5055376;28;20244;-72
2023/08/21 03:15:42;;;;;;;19.35;16.77;;;21.60;99.90;;;;;;5055354;28;20202;-72
2023/08/21 03:18:08;;;;;;;19.35;16.35;;;21.60;99.90;;;;;;5055609;28;20280;-72
2023/08/21 03:20:35;;;;;;;19.20;17.40;;;21.60;99.90;;;;;;5055453;28;20202;-72
2023/08/21 03:23:02;;;;;;;19.40;17.35;;;21.50;99.90;;;;;;5055304;28;20201;-72
2023/08/21 03:25:30;;;;;;;18.20;16.48;;;21.40;99.90;;;;;;5055229;28;20197;-72
2023/08/21 03:27:56;;;;;;;21.17;17.83;;;21.20;99.90;;;;;;5055312;28;20197;-72
2023/08/21 03:30:23;;;;;;;18.90;17.23;;;21.20;99.90;;;;;;5055368;28;20198;-73
2023/08/21 03:32:50;;;;;;;20.35;18.35;;;21.10;99.90;;;;;;5055309;28;20247;-72
2023/08/21 03:35:17;;;;;;;20.67;17.38;;;21.20;99.90;;;;;;5054572;28;20650;-72
2023/08/21 03:37:43;;;;;;;20.77;18.88;;;21.20;99.90;;;;;;5055252;28;20296;-72
2023/08/21 03:40:10;;;;;;;20.02;18.13;;;21.10;99.90;;;;;;5054785;28;20238;-72
2023/08/21 03:42:38;;;;;;;21.30;19.20;;;20.90;99.90;;;;;;5055113;28;20209;-72
2023/08/21 03:45:06;;;;;;;21.80;19.77;;;20.90;99.90;;;;;;5055131;28;20214;-72
2023/08/21 03:47:33;;;;;;;21.70;19.40;;;21.00;99.90;;;;;;5054729;28;20205;-73
2023/08/21 03:50:00;;;;;;;21.27;19.15;;;21.00;99.90;;;;;;5054918;28;20624;-72
2023/08/21 03:52:26;;;;;;;21.63;19.40;;;20.90;99.90;;;;;;5054603;28;20719;-73
2023/08/21 03:54:53;;;;;;;22.20;20.23;;;20.80;99.90;;;;;;5054623;28;20231;-73
2023/08/21 03:57:20;;;;;;;22.02;19.75;;;20.80;99.90;;;;;;5054609;28;20198;-72
2023/08/21 03:59:48;;;;;;;23.33;20.73;;;20.70;99.90;;;;;;5054751;28;20228;-72
2023/08/21 04:02:14;;;;;;;23.23;21.13;;;20.60;99.90;;;;;;5054624;28;20193;-72
2023/08/21 04:04:41;;;;;;;23.02;20.90;;;20.60;99.90;;;;;;5054247;28;20723;-72
2023/08/21 04:07:07;;;;;;;23.48;21.13;;;20.50;99.90;;;;;;5054608;28;20301;-72
2023/08/21 04:09:34;;;;;;;22.25;20.15;;;20.70;99.90;;;;;;5054624;28;20280;-72
2023/08/21 04:12:01;;;;;;;22.30;20.00;;;20.80;99.90;;;;;;5054652;28;20255;-73
2023/08/21 04:14:27;;;;;;;23.55;21.05;;;20.90;99.90;;;;;;5054570;28;20205;-72
2023/08/21 04:16:55;;;;;;;23.50;20.90;;;20.80;99.90;;;;;;5054367;28;20202;-72
2023/08/21 04:19:22;;;;;;;22.83;20.58;;;20.70;99.90;;;;;;5054411;28;20228;-72
2023/08/21 04:21:48;;;;;;;22.77;20.63;;;20.60;99.90;;;;;;5054073;28;20225;-73
2023/08/21 04:24:15;;;;;;;23.35;20.92;;;20.50;99.90;;;;;;5054050;28;20202;-72
2023/08/21 04:26:41;;;;;;;23.27;20.98;;;20.50;99.90;;;;;;5054273;28;20263;-72
2023/08/21 04:29:08;;;;;;;23.17;20.77;;;20.50;99.90;;;;;;5054118;28;20252;-72
2023/08/21 04:31:35;;;;;;;24.50;22.20;;;20.50;99.90;;;;;;5053913;28;20255;-72
2023/08/21 04:34:03;;;;;;;24.50;21.50;;;20.70;99.90;;;;;;5053975;28;20201;-73
2023/08/21 04:36:30;;;;;;;24.15;21.73;;;20.60;99.90;;;;;;5053746;28;20204;-72
2023/08/21 04:38:57;;;;;;;23.65;21.17;;;20.60;99.90;;;;;;5054005;28;20243;-72
2023/08/21 04:41:23;;;;;;;23.88;21.25;;;20.60;99.90;;;;;;5053701;28;20587;-72
2023/08/21 04:43:50;;;;;;;23.30;21.02;;;20.60;99.90;;;;;;5053845;28;20193;-72
2023/08/21 04:46:17;;;;;;;23.27;20.75;;;20.60;99.90;;;;;;5055358;28;20267;-73
2023/08/21 04:48:44;;;;;;;27.65;23.05;;;20.70;99.90;;;;;;5052848;28;20271;-73
2023/08/21 04:51:12;;;;;;;23.23;21.13;;;20.70;99.90;;;;;;5053706;28;20205;-73
2023/08/21 04:53:38;;;;;;;24.60;21.95;;;20.70;99.90;;;;;;5053953;28;20206;-72
2023/08/21 04:56:05;;;;;;;23.65;21.27;;;20.80;99.90;;;;;;5053970;28;20252;-71
2023/08/21 04:58:32;;;;;;;24.25;21.67;;;20.80;99.90;;;;;;5053627;28;20201;-72
2023/08/21 05:00:59;;;;;;;24.00;21.80;;;20.80;99.90;;;;;;5053384;28;20194;-72
2023/08/21 05:03:25;;;;;;;27.38;21.65;;;20.80;99.90;;;;;;5053412;28;20271;-72
2023/08/21 05:05:55;;;;;;;22.08;20.08;;;21.00;99.90;;;;;;5053319;28;20691;-72
2023/08/21 05:08:25;;;;;;;22.15;19.88;;;21.10;99.90;;;;;;5053430;28;20197;-72
2023/08/21 05:10:56;;;;;;;22.63;20.38;;;21.10;99.90;;;;;;5053358;28;20197;-72
2023/08/21 05:13:23;;;;;;;22.60;19.15;;;21.20;99.90;;;;;;5053176;28;20606;-72
2023/08/21 05:15:53;;;;;;;23.02;20.83;;;21.20;99.90;;;;;;5053417;28;20201;-72
2023/08/21 05:18:20;;;;;;;22.17;19.65;;;21.30;99.90;;;;;;5053433;28;20202;-72
2023/08/21 05:20:47;;;;;;;20.88;18.98;;;21.40;99.90;;;;;;5053272;28;20604;-72
2023/08/21 05:23:14;;;;;;;21.13;19.15;;;21.40;99.90;;;;;;5053339;28;20284;-72
2023/08/21 05:25:42;;;;;;;21.15;18.92;;;21.50;99.90;;;;;;5053287;28;20198;-72
2023/08/21 05:28:09;;;;;;;24.13;19.70;;;21.70;99.90;;;;;;5053145;28;20197;-72
2023/08/21 05:30:36;;;;;;;21.15;19.05;;;21.80;99.90;;;;;;5052880;28;20639;-72
2023/08/21 05:33:03;;;;;;;21.42;19.38;;;21.80;99.90;;;;;;5053051;28;20201;-72
2023/08/21 05:35:33;;;;;;;21.30;19.10;;;21.90;99.90;;;;;;5052695;28;20569;-72
2023/08/21 05:37:59;;;;;;;21.02;19.02;;;22.00;99.90;;;;;;5052996;28;20612;-72
2023/08/21 05:40:26;;;;;;;20.60;18.80;;;22.10;99.90;;;;;;5052702;28;20225;-72
2023/08/21 05:42:54;;;;;;;20.90;18.83;;;22.10;99.90;;;;;;5052719;28;20635;-72
2023/08/21 05:45:20;;;;;;;21.55;19.30;;;22.20;99.90;;;;;;5053081;28;20202;-72
2023/08/21 05:47:47;;;;;;;22.40;20.15;;;22.20;99.90;;;;;;5053500;28;20248;-72
2023/08/21 05:50:14;;;;;;;21.30;19.10;;;22.40;99.90;;;;;;5053805;28;20197;-72
2023/08/21 05:52:41;;;;;;;22.25;20.00;;;22.50;99.90;;;;;;5052738;28;20275;-72
2023/08/21 05:55:08;;;;;;;19.60;17.77;;;22.50;99.90;;;;;;5052501;28;20799;-73
2023/08/21 05:57:34;;;;;;;21.58;19.23;;;22.60;99.90;;;;;;5052752;28;20201;-72
2023/08/21 06:00:03;;;;;;;19.92;18.10;;;22.70;99.90;;;;;;5052247;28;20198;-72
2023/08/21 06:02:29;;;;;;;19.05;17.27;;;22.80;99.90;;;;;;5052643;28;20229;-72
2023/08/21 06:04:56;;;;;;;20.65;18.70;;;22.90;99.90;;;;;;5052444;28;20654;-72
2023/08/21 06:07:22;;;;;;;21.08;18.38;;;22.90;99.90;;;;;;5052601;28;20202;-72
2023/08/21 06:09:49;;;;;;;19.92;17.92;;;23.00;99.90;;;;;;5052500;28;20202;-72
2023/08/21 06:12:16;;;;;;;20.38;18.48;;;22.90;99.90;;;;;;5052401;28;20243;-72
2023/08/21 06:14:43;;;;;;;22.50;20.40;;;22.90;99.90;;;;;;5052249;28;20260;-72
2023/08/21 06:17:11;;;;;;;22.73;20.60;;;22.90;99.90;;;;;;5052503;28;20202;-72
2023/08/21 06:19:37;;;;;;;23.38;20.90;;;22.90;99.90;;;;;;5052541;28;20280;-72
2023/08/21 06:22:05;;;;;;;22.77;20.70;;;23.00;99.90;;;;;;5052272;28;20616;-74
2023/08/21 06:24:32;;;;;;;23.13;21.02;;;23.10;99.90;;;;;;5052279;28;20719;-72
2023/08/21 06:26:59;;;;;;;20.88;18.75;;;23.20;99.90;;;;;;5052283;28;20604;-72
2023/08/21 06:29:26;;;;;;;21.77;19.58;;;23.40;99.90;;;;;;5052227;28;20252;-72
2023/08/21 06:31:52;;;;;;;23.17;20.95;;;23.70;99.90;;;;;;5052382;28;20201;-72
2023/08/21 06:34:20;;;;;;;22.40;20.05;;;23.80;99.90;;;;;;5052185;28;20653;-72
2023/08/21 06:36:47;;;;;;;21.08;18.92;;;23.90;99.90;;;;;;5052142;28;20244;-72
2023/08/21 06:39:13;;;;;;;21.70;19.63;;;24.00;99.90;;;;;;5052278;28;20202;-72
2023/08/21 06:41:40;;;;;;;22.45;20.38;;;24.20;99.90;;;;;;5051785;28;20744;-71
2023/08/21 06:44:07;;;;;;;23.23;19.88;;;24.30;99.90;;;;;;5052309;28;20193;-72
2023/08/21 06:46:34;;;;;;;20.95;18.77;;;24.30;99.90;;;;;;5052103;28;20206;-72
2023/08/21 06:49:00;;;;;;;20.85;18.95;;;24.50;99.90;;;;;;5052150;28;20217;-72
2023/08/21 06:51:28;;;;;;;22.52;20.52;;;24.60;99.90;;;;;;5052051;28;20728;-72
2023/08/21 06:53:55;;;;;;;22.95;20.55;;;24.70;99.90;;;;;;5052047;28;20248;-72
2023/08/21 06:56:22;;;;;;;22.83;20.58;;;24.80;99.90;;;;;;5051987;28;20297;-72
2023/08/21 06:58:48;;;;;;;22.30;20.20;;;24.80;99.90;;;;;;5052460;28;20209;-72
2023/08/21 07:01:15;;;;;;;22.23;20.15;;;24.90;99.90;;;;;;5052441;28;20248;-72
2023/08/21 07:03:41;;;;;;;20.75;18.85;;;25.10;99.90;;;;;;5051941;28;20229;-72
2023/08/21 07:06:08;;;;;;;22.73;20.40;;;25.20;99.90;;;;;;5052012;28;20243;-72
2023/08/21 07:08:37;;;;;;;20.80;18.70;;;25.20;99.90;;;;;;5051925;28;20198;-71
2023/08/21 07:11:04;;;;;;;20.48;18.58;;;25.20;99.90;;;;;;5052823;28;20197;-72
2023/08/21 07:13:31;;;;;;;20.42;18.52;;;25.20;99.90;;;;;;5055391;28;20307;-72
2023/08/21 07:15:58;;;;;;;20.40;18.50;;;25.40;99.90;;;;;;5055548;28;20233;-73
2023/08/21 07:18:25;;;;;;;20.67;18.50;;;25.70;99.90;;;;;;5055322;28;20271;-72
2023/08/21 07:20:53;;;;;;;20.75;18.27;;;25.90;99.90;;;;;;5055299;28;20205;-72
2023/08/21 07:23:20;;;;;;;20.42;18.38;;;26.10;99.90;;;;;;5055226;28;20271;-72
2023/08/21 07:25:48;;;;;;;19.35;17.55;;;26.20;99.90;;;;;;5055241;28;20201;-73
2023/08/21 07:28:14;;;;;;;19.77;17.88;;;26.40;99.90;;;;;;5055305;28;20205;-73
2023/08/21 07:30:41;;;;;;;19.48;17.52;;;26.50;99.90;;;;;;5055235;28;20259;-72
2023/08/21 07:33:07;;;;;;;20.38;16.92;;;26.70;99.90;;;;;;5055058;28;20275;-72
2023/08/21 07:35:34;;;;;;;19.30;17.63;;;26.70;99.90;;;;;;5055030;28;20251;-72
2023/08/21 07:38:01;;;;;;;20.10;17.85;;;27.00;99.90;;;;;;5055025;28;20201;-72
2023/08/21 07:40:27;;;;;;;19.98;17.95;;;27.30;99.90;;;;;;5054983;28;20226;-73
2023/08/21 07:42:55;;;;;;;19.88;18.10;;;27.30;99.90;;;;;;5054971;28;20271;-72
2023/08/21 07:45:22;;;;;;;22.30;19.40;;;27.40;99.90;;;;;;5054931;28;20600;-72
2023/08/21 07:47:49;;;;;;;20.35;18.50;;;27.50;99.90;;;;;;5054925;28;20201;-72
2023/08/21 07:50:16;;;;;;;21.70;19.52;;;27.50;99.90;;;;;;5054704;28;20201;-72
2023/08/21 07:52:43;;;;;;;23.45;21.13;;;27.50;99.90;;;;;;5054632;28;20205;-73
2023/08/21 07:55:10;;;;;;;21.52;19.58;;;27.40;99.90;;;;;;5054855;28;20193;-72
2023/08/21 07:57:36;;;;;;;22.80;20.38;;;27.80;99.90;;;;;;5055032;28;20202;-73
2023/08/21 08:00:08;;;;;;;23.33;21.08;;;28.00;99.90;;;;;;5054698;28;20193;-72
2023/08/21 08:02:34;;;;;;;23.40;21.15;;;28.00;99.90;;;;;;5054514;28;20305;-72
2023/08/21 08:05:01;;;;;;;24.83;22.50;;;28.10;99.90;;;;;;5054441;28;20197;-72
2023/08/21 08:07:28;;;;;;;25.40;23.08;;;28.10;99.90;;;;;;5054283;28;20601;-73
2023/08/21 08:09:55;;;;;;;23.65;21.40;;;28.00;99.90;;;;;;5054474;28;20225;-73
2023/08/21 08:12:21;;;;;;;22.65;20.50;;;28.20;99.90;;;;;;5054298;28;20616;-73
2023/08/21 08:14:48;;;;;;;20.35;18.15;;;28.40;99.90;;;;;;5054300;28;20209;-72
2023/08/21 08:17:16;;;;;;;20.45;18.63;;;28.50;99.90;;;;;;5054152;28;20252;-72
2023/08/21 08:19:43;;;;;;;18.95;17.08;;;29.00;99.90;;;;;;5053880;28;20665;-72
2023/08/21 08:22:09;;;;;;;18.63;16.85;;;29.60;99.90;;;;;;5054209;28;20197;-73
2023/08/21 08:24:36;;;;;;;16.58;15.13;;;29.70;99.90;;;;;;5054180;28;20263;-73
2023/08/21 08:27:03;;;;;;;19.88;16.63;;;29.90;99.90;;;;;;5054255;28;20232;-73
2023/08/21 08:29:30;;;;;;;16.17;14.32;;;30.00;99.90;;;;;;5054129;28;20201;-72
2023/08/21 08:31:57;;;;;;;15.35;13.98;;;30.60;99.90;;;;;;5054092;28;20606;-73
2023/08/21 08:34:24;;;;;;;15.77;14.27;;;31.00;99.90;;;;;;5053841;28;20209;-73
2023/08/21 08:36:51;;;;;;;14.98;13.57;;;31.00;99.90;;;;;;5054019;28;20263;-73
2023/08/21 08:39:18;;;;;;;15.20;13.73;;;30.60;99.90;;;;;;5053865;28;20707;-73
2023/08/21 08:41:51;;;;;;;14.75;13.30;;;30.90;99.90;;;;;;5053737;28;20237;-73
2023/08/21 08:44:19;;;;;;;15.60;13.55;;;31.20;99.90;;;;;;5053462;28;20275;-73
2023/08/21 08:46:45;;;;;;;14.13;12.82;;;31.40;99.90;;;;;;5053376;28;20206;-72
2023/08/21 08:49:12;;;;;;;14.13;12.93;;;30.90;99.90;;;;;;5053617;28;20198;-73
2023/08/21 08:51:42;;;;;;;14.23;12.55;;;31.30;99.90;;;;;;5053568;28;20712;-73
2023/08/21 08:54:09;;;;;;;13.70;12.35;;;31.30;99.90;;;;;;5053692;28;20608;-73
2023/08/21 08:56:36;;;;;;;14.93;13.35;;;31.30;99.90;;;;;;5053617;28;20251;-73
2023/08/21 08:59:03;;;;;;;17.23;13.43;;;32.10;99.90;;;;;;5053430;28;20204;-72
2023/08/21 09:01:30;;;;;;;13.23;12.10;;;31.40;99.90;;;;;;5053605;28;20193;-73
2023/08/21 09:03:56;;;;;;;12.88;11.68;;;31.80;99.90;;;;;;5053358;28;20229;-73
2023/08/21 09:06:23;;;;;;;13.98;11.13;;;32.30;99.90;;;;;;5053487;28;20197;-73
2023/08/21 09:08:58;;;;;;;12.40;11.35;;;32.60;99.90;;;;;;5053307;28;20198;-73
2023/08/21 09:11:25;;;;;;;12.00;11.00;;;32.80;99.90;;;;;;5053083;28;20204;-73
2023/08/21 09:13:53;;;;;;;11.60;10.60;;;33.10;99.90;;;;;;5053116;28;20282;-73
2023/08/21 09:16:20;;;;;;;11.27;10.35;;;33.20;99.90;;;;;;5053340;28;20251;-73
2023/08/21 09:18:50;;;;;;;11.55;10.40;;;33.10;99.90;;;;;;5053166;28;20201;-73
2023/08/21 09:21:18;;;;;;;15.10;11.65;;;33.70;99.90;;;;;;5053086;28;20201;-73
2023/08/21 09:23:45;;;;;;;14.65;11.52;;;32.80;99.90;;;;;;5053045;28;20363;-74
2023/08/21 09:26:20;;;;;;;11.35;10.35;;;32.50;99.90;;;;;;5052726;28;20596;-73
2023/08/21 09:28:47;;;;;;;18.95;10.93;;;33.60;99.90;;;;;;5053038;28;20192;-73
2023/08/21 09:31:13;;;;;;;12.35;11.00;;;34.40;99.90;;;;;;5052767;28;20645;-74
2023/08/21 09:33:41;;;;;;;15.80;10.65;;;34.60;99.90;;;;;;5052411;28;20561;-73
2023/08/21 09:36:10;;;;;;;13.55;9.82;;;33.30;99.90;;;;;;5052828;28;20204;-73
2023/08/21 09:38:39;;;;;;;12.30;9.55;;;33.30;99.90;;;;;;5052825;28;20259;-73
2023/08/21 09:41:07;;;;;;;9.25;7.75;;;33.10;99.90;;;;;;5052738;28;20232;-73
2023/08/21 09:43:42;;;;;;;12.75;8.68;;;32.30;99.90;;;;;;5052556;28;20236;-73
2023/08/21 09:46:09;;;;;;;9.50;7.60;;;32.10;99.90;;;;;;5052945;28;20197;-73
2023/08/21 09:48:36;;;;;;;9.20;8.23;;;32.50;99.90;;;;;;5052465;28;20608;-73
2023/08/21 09:51:04;;;;;;;9.18;7.03;;;33.10;99.90;;;;;;5052633;28;20197;-73
2023/08/21 09:53:31;;;;;;;8.77;6.60;;;33.80;99.90;;;;;;5052474;28;20251;-73
2023/08/21 09:55:58;;;;;;;7.57;6.68;;;33.40;99.90;;;;;;5052787;28;20197;-73
2023/08/21 09:58:25;;;;;;;7.05;6.35;;;33.00;99.90;;;;;;5052442;28;20592;-73
2023/08/21 10:00:57;;;;;;;8.13;6.50;;;33.00;99.90;;;;;;5052502;28;20649;-73
2023/08/21 10:03:25;;;;;;;7.05;5.93;;;33.10;99.90;;;;;;5052556;28;20218;-73
2023/08/21 10:05:55;;;;;;;5.80;5.30;;;33.90;99.90;;;;;;5052465;28;20197;-73
2023/08/21 10:08:25;;;;;;;9.20;6.65;;;34.50;99.90;;;;;;5052604;28;20251;-74
2023/08/21 10:10:52;;;;;;;7.13;6.43;;;35.10;99.90;;;;;;5052516;28;20284;-73
2023/08/21 10:13:20;;;;;;;9.93;7.00;;;35.40;99.90;;;;;;5052424;28;20604;-74
2023/08/21 10:15:47;;;;;;;7.70;6.60;;;35.20;99.90;;;;;;5052402;28;20300;-73
2023/08/21 10:18:23;;;;;;;7.13;6.53;;;35.50;99.90;;;;;;5052408;28;20204;-73
2023/08/21 10:20:50;;;;;;;7.40;6.72;;;36.00;99.90;;;;;;5052446;28;20717;-74
2023/08/21 10:23:27;;;;;;;7.50;6.80;;;36.40;98.80;;;;;;5052482;28;20275;-74
2023/08/21 10:25:58;;;;;;;10.18;7.65;;;36.40;98.20;;;;;;5052557;28;20498;-73
2023/08/21 10:28:24;;;;;;;8.38;7.57;;;36.60;98.20;;;;;;5052400;28;20287;-74
2023/08/21 10:30:52;;;;;;;8.43;7.57;;;37.00;97.60;;;;;;5052251;28;20201;-74
2023/08/21 10:33:38;;;;;;;7.30;6.63;;;36.80;97.20;;;;;;5052325;28;20687;-74
2023/08/21 10:36:07;;;;;;;10.88;7.03;;;37.10;97.00;;;;;;5052316;28;20783;-73
2023/08/21 10:38:53;;;;;;;8.18;7.40;;;37.60;96.40;;;;;;5052266;28;20197;-74
2023/08/21 10:41:27;;;;;;;8.93;7.55;;;37.90;96.00;;;;;;5051801;28;20302;-73
2023/08/21 10:43:54;;;;;;;8.07;7.30;;;37.60;95.80;;;;;;5052102;28;20224;-73
2023/08/21 10:46:20;;;;;;;8.32;7.20;;;38.60;95.30;;;;;;5053558;28;20656;-73
2023/08/21 10:48:47;;;;;;;8.38;7.50;;;38.70;94.00;;;;;;5055984;28;20193;-73
2023/08/21 10:51:17;;;;;;;9.43;7.80;;;39.20;94.20;;;;;;5055878;28;20205;-73
2023/08/21 10:53:44;;;;;;;8.48;7.10;;;39.50;93.10;;;;;;5055849;28;20262;-75
2023/08/21 10:56:11;;;;;;;7.65;6.90;;;39.90;92.20;;;;;;5055638;28;20660;-72
2023/08/21 10:58:41;;;;;;;9.18;6.70;;;40.20;91.50;;;;;;5055931;28;20201;-73
2023/08/21 11:01:08;;;;;;;8.27;7.47;;;41.10;90.70;;;;;;5055934;28;20714;-73
2023/08/21 11:03:35;;;;;;;7.10;6.40;;;42.00;86.10;;;;;;5055654;28;20201;-73
2023/08/21 11:06:03;;;;;;;10.07;6.78;;;41.10;83.30;;;;;;5055649;28;20232;-73
2023/08/21 11:08:32;;;;;;;8.10;6.95;;;40.20;84.00;;;;;;5055790;28;20193;-73
2023/08/21 11:10:59;;;;;;;7.28;6.57;;;40.20;84.10;;;;;;5055556;28;20198;-74
2023/08/21 11:13:26;;;;;;;11.15;7.55;;;40.00;82.50;;;;;;5055362;28;20283;-73
2023/08/21 11:15:59;;;;;;;8.73;7.15;;;39.00;83.20;;;;;;5055468;28;20247;-73
2023/08/21 11:18:31;;;;;;;9.48;7.50;;;38.60;83.80;;;;;;5055273;28;20208;-73
2023/08/21 11:21:04;;;;;;;10.43;7.80;;;38.70;83.90;;;;;;5055173;28;20215;-74
2023/08/21 11:23:34;;;;;;;9.18;8.15;;;36.90;85.40;;;;;;5055298;28;20201;-74
2023/08/21 11:26:02;;;;;;;9.40;7.90;;;36.80;87.30;;;;;;5055301;28;20193;-73
2023/08/21 11:28:29;;;;;;;8.57;7.50;;;36.00;87.10;;;;;;5055076;28;20197;-73
2023/08/21 11:30:57;;;;;;;9.43;7.80;;;35.30;90.10;;;;;;5055074;28;20294;-73
2023/08/21 11:33:24;;;;;;;9.38;7.38;;;36.20;88.40;;;;;;5054873;28;20228;-73
2023/08/21 11:35:53;;;;;;;12.15;7.38;;;37.00;86.00;;;;;;5055371;28;20197;-73
2023/08/21 11:38:21;;;;;;;9.43;7.03;;;38.30;84.40;;;;;;5055023;28;20197;-73
2023/08/21 11:40:56;;;;;;;9.55;7.40;;;39.30;81.60;;;;;;5054864;28;20225;-73
2023/08/21 11:43:34;;;;;;;7.63;6.88;;;39.00;80.70;;;;;;5054929;28;20268;-74
2023/08/21 11:46:02;;;;;;;8.25;7.25;;;39.90;80.00;;;;;;5054853;28;20208;-74
2023/08/21 11:48:29;;;;;;;9.70;7.68;;;40.50;77.50;;;;;;5054962;28;20327;-74
2023/08/21 11:50:56;;;;;;;8.70;6.93;;;40.60;77.10;;;;;;5054826;28;20197;-74
2023/08/21 11:53:33;;;;;;;8.70;6.72;;;41.80;75.90;;;;;;5054542;28;20228;-74
2023/08/21 11:56:02;;;;;;;8.25;6.38;;;43.30;72.90;;;;;;5054705;28;20201;-74
2023/08/21 11:58:28;;;;;;;8.68;6.93;;;41.80;72.40;;;;;;5054167;28;20660;-74
2023/08/21 12:00:55;;;;;;;8.63;7.72;;;38.80;75.90;;;;;;5054829;28;20284;-73
2023/08/21 12:03:21;;;;;;;9.00;7.35;;;36.60;79.90;;;;;;5054617;28;20193;-74
2023/08/21 12:05:48;;;;;;;8.70;7.88;;;36.30;81.90;;;;;;5054638;28;20201;-74
2023/08/21 12:08:15;;;;;;;11.48;7.80;;;37.10;81.80;;;;;;5054509;28;20259;-74
2023/08/21 12:10:42;;;;;;;10.20;7.70;;;38.70;80.10;;;;;;5054468;28;20251;-74
2023/08/21 12:13:10;;;;;;;9.13;7.60;;;39.70;79.00;;;;;;5054379;28;20201;-74
2023/08/21 12:15:36;;;;;;;8.45;7.55;;;40.20;76.10;;;;;;5054481;28;20201;-74
2023/08/21 12:18:03;;;;;;;8.07;7.00;;;40.80;73.30;;;;;;5054314;28;20212;-74
2023/08/21 12:20:30;;;;;;;8.95;7.47;;;41.90;71.50;;;;;;5054418;28;20247;-74
2023/08/21 12:22:57;;;;;;;8.32;5.90;;;42.00;70.70;;;;;;5054284;28;20197;-74
2023/08/21 12:25:24;;;;;;;10.80;6.25;;;42.60;69.30;;;;;;5054190;28;20259;-74
2023/08/21 12:27:50;;;;;;;7.30;6.32;;;42.50;65.80;;;;;;5054428;28;20243;-74
2023/08/21 12:30:18;;;;;;;10.35;6.47;;;41.50;66.30;;;;;;5054290;28;20251;-74
2023/08/21 12:32:45;;;;;;;8.82;6.75;;;41.00;67.20;;;;;;5054140;28;20201;-74